Time;durP1;ratioP1;P1;durP2;ratioP2;P2;SDS_P1;SDS_P2;PMS_P1;PMS_P2;Temp;Humidity;BMP_temperature;BMP_pressure;BME280_temperature;BME280_humidity;BME280_pressure;Samples;Min_cycle;Max_cycle;Signal;HPM_P1;HPM_P2
2022/10/26 00:01:19;;;;;;;22.95;6.82;;;;;;;19.54;56.20;100868.66;5090496;28;20024;-78
2022/10/26 00:03:45;;;;;;;81.60;8.27;;;;;;;19.57;55.96;100874.81;5089975;28;20460;-77
2022/10/26 00:06:14;;;;;;;22.92;6.72;;;;;;;19.52;56.23;100864.41;5090547;28;20027;-76
2022/10/26 00:08:40;;;;;;;30.20;7.28;;;;;;;19.57;56.11;100882.97;5091352;28;20043;-76
2022/10/26 00:11:07;;;;;;;25.10;7.03;;;;;;;19.57;56.02;100882.97;5090311;28;20024;-78
2022/10/26 00:13:33;;;;;;;21.13;6.35;;;;;;;19.53;56.24;100882.47;5090046;28;20055;-77
2022/10/26 00:15:59;;;;;;;28.75;6.40;;;;;;;19.48;56.22;100891.19;5089882;28;20020;-77
2022/10/26 00:18:24;;;;;;;29.33;5.90;;;;;;;19.52;56.24;100891.69;5090044;28;20526;-77
2022/10/26 00:20:50;;;;;;;17.13;6.60;;;;;;;19.49;56.00;100876.53;5090184;28;20322;-77
2022/10/26 00:23:16;;;;;;;13.57;6.78;;;;;;;19.55;56.15;100892.19;5090733;28;20411;-77
2022/10/26 00:25:41;;;;;;;24.77;6.03;;;;;;;19.38;56.23;100876.88;5089380;28;20024;-76
2022/10/26 00:28:07;;;;;;;26.30;7.78;;;;;;;19.43;56.41;100892.75;5090200;28;20032;-77
2022/10/26 00:30:37;;;;;;;17.10;6.88;;;;;;;19.27;56.54;100862.75;5090182;28;20040;-76
2022/10/26 00:33:03;;;;;;;33.75;6.90;;;;;;;19.27;56.43;100860.00;5090494;28;20024;-77
2022/10/26 00:35:28;;;;;;;21.38;5.85;;;;;;;19.40;56.52;100882.19;5090164;28;20024;-77
2022/10/26 00:37:55;;;;;;;32.40;7.65;;;;;;;19.43;56.69;100887.28;5088998;28;20522;-77
2022/10/26 00:40:20;;;;;;;27.33;7.95;;;;;;;19.43;56.62;100895.47;5091074;28;20028;-76
2022/10/26 00:42:46;;;;;;;15.52;5.78;;;;;;;19.38;56.67;100886.94;5090394;28;20032;-77
2022/10/26 00:45:28;;;;;;;16.65;5.30;;;;;;;19.23;57.10;100878.63;5090380;28;20028;-76
2022/10/26 00:48:01;;;;;;;13.32;6.75;;;;;;;19.33;57.07;100897.50;5090874;28;20025;-78
2022/10/26 00:50:32;;;;;;;39.83;17.52;;;;;;;19.32;57.04;100899.41;5090206;28;20042;-79
2022/10/26 00:52:59;;;;;;;23.50;7.28;;;;;;;19.27;57.05;100893.59;5089829;28;20400;-77
2022/10/26 00:55:31;;;;;;;13.07;6.35;;;;;;;19.32;57.03;100904.84;5089517;28;20028;-76
2022/10/26 00:57:57;;;;;;;19.67;6.87;;;;;;;19.30;57.03;100898.72;5097030;28;20020;-78
2022/10/26 01:00:23;;;;;;;26.33;7.07;;;;;;;19.31;57.09;100896.84;5107243;28;20020;-79
2022/10/26 01:02:50;;;;;;;92.97;10.93;;;;;;;19.37;57.13;100899.72;5107697;28;20131;-77
2022/10/26 01:05:18;;;;;;;233.90;19.45;;;;;;;19.31;57.15;100889.50;5093340;28;20032;-76
2022/10/26 01:07:44;;;;;;;25.63;7.03;;;;;;;19.35;57.03;100900.94;5089620;28;20104;-76
2022/10/26 01:10:10;;;;;;;21.95;7.07;;;;;;;19.35;56.92;100896.31;5089690;28;20020;-76
2022/10/26 01:12:36;;;;;;;18.08;6.80;;;;;;;19.29;57.17;100898.91;5089957;28;20063;-76
2022/10/26 01:15:03;;;;;;;125.30;13.25;;;;;;;19.04;57.33;100870.84;5070406;28;20036;-78
2022/10/26 01:18:03;;;;;;;27.20;6.93;;;;;;;19.15;57.43;100889.53;5070982;28;20042;-77
2022/10/26 01:20:48;;;;;;;31.40;8.27;;;;;;;19.06;57.37;100866.03;5047266;28;20041;-78
2022/10/26 01:23:14;;;;;;;22.98;6.80;;;;;;;19.19;57.50;100904.53;5047396;28;20099;-78
2022/10/26 01:25:52;;;;;;;14.25;7.28;;;;;;;19.18;57.71;100894.66;5047226;28;20040;-76
2022/10/26 01:28:42;;;;;;;22.75;7.65;;;;;;;19.17;57.59;100889.38;5047312;28;20119;-76
2022/10/26 01:31:12;;;;;;;97.70;12.30;;;;;;;19.01;57.72;100882.09;5047128;28;20041;-76
2022/10/26 01:33:41;;;;;;;283.58;23.48;;;;;;;19.12;57.90;100895.34;5046960;28;20045;-76
2022/10/26 01:36:26;;;;;;;37.17;9.25;;;;;;;19.11;58.14;100896.34;5046827;28;20031;-76
2022/10/26 01:39:08;;;;;;;31.88;7.97;;;;;;;19.08;58.23;100888.53;5030136;28;20504;-77
2022/10/26 01:41:48;;;;;;;28.08;9.70;;;;;;;19.00;58.11;100880.38;5047075;28;20036;-77
2022/10/26 01:44:43;;;;;;;30.30;9.65;;;;;;;18.95;58.38;100864.53;5046803;28;20036;-78
2022/10/26 01:47:12;;;;;;;20.02;8.02;;;;;;;18.90;58.25;100852.44;4987524;28;20046;-78
2022/10/26 01:49:42;;;;;;;26.13;9.18;;;;;;;19.07;58.39;100883.25;4987872;28;20046;-78
2022/10/26 01:52:09;;;;;;;35.75;9.07;;;;;;;19.09;58.52;100878.47;4987541;28;20047;-77
2022/10/26 01:54:35;;;;;;;26.98;10.23;;;;;;;19.09;58.61;100873.88;4987809;28;20037;-77
2022/10/26 01:57:08;;;;;;;27.75;10.23;;;;;;;18.90;59.05;100850.56;5009391;28;20159;-77
2022/10/26 01:59:42;;;;;;;57.63;10.15;;;;;;;19.02;59.57;100878.31;5046763;28;20107;-78
2022/10/26 02:02:32;;;;;;;39.90;12.45;;;;;;;18.90;60.08;100844.25;5046852;28;20029;-78
2022/10/26 02:05:20;;;;;;;27.77;10.85;;;;;;;19.01;60.30;100873.91;5047007;28;20033;-77
2022/10/26 02:07:56;;;;;;;24.02;10.27;;;;;;;19.00;60.36;100883.09;5046976;28;20068;-77
2022/10/26 02:10:27;;;;;;;31.77;11.10;;;;;;;18.97;60.62;100878.00;5049953;28;20059;-77
2022/10/26 02:13:12;;;;;;;29.13;10.75;;;;;;;18.94;60.91;100878.34;5062050;28;20029;-76
2022/10/26 02:15:54;;;;;;;33.17;11.05;;;;;;;18.92;60.87;100877.66;5061575;28;20032;-77
2022/10/26 02:18:38;;;;;;;27.83;12.00;;;;;;;18.88;61.01;100888.06;5050661;28;20056;-77
2022/10/26 02:21:11;;;;;;;81.70;14.50;;;;;;;18.80;61.26;100890.81;5046833;28;20029;-77
2022/10/26 02:23:41;;;;;;;33.85;12.45;;;;;;;18.82;61.22;100896.06;5059487;28;20052;-77
2022/10/26 02:26:10;;;;;;;34.85;10.02;;;;;;;18.74;61.44;100893.34;5091466;28;20020;-76
2022/10/26 02:28:42;;;;;;;33.33;11.43;;;;;;;18.79;61.36;100889.09;5093597;28;20032;-77
2022/10/26 02:31:10;;;;;;;33.38;10.32;;;;;;;18.84;61.11;100891.28;5093298;28;20150;-77
2022/10/26 02:33:42;;;;;;;34.97;10.68;;;;;;;18.84;60.96;100897.59;5093430;28;20177;-76
2022/10/26 02:36:13;;;;;;;34.13;10.02;;;;;;;18.85;60.97;100893.84;5093184;28;20371;-76
2022/10/26 02:38:41;;;;;;;26.75;11.75;;;;;;;18.71;60.86;100869.19;5094824;28;20090;-76
2022/10/26 02:41:08;;;;;;;29.13;10.77;;;;;;;18.90;60.90;100896.03;5093251;28;20036;-76
2022/10/26 02:43:40;;;;;;;40.90;11.05;;;;;;;18.69;60.89;100871.19;5093264;28;20446;-76
2022/10/26 02:46:07;;;;;;;;;;;;;;;18.84;61.14;100904.91;5093427;28;20106;-77
2022/10/26 02:48:34;;;;;;;40.72;12.20;;;;;;;18.59;61.38;100884.16;5093214;28;19915;-77
2022/10/26 02:51:12;;;;;;;90.53;12.40;;;;;;;18.74;61.46;100906.97;5093014;28;20498;-78
2022/10/26 02:53:41;;;;;;;41.78;10.77;;;;;;;18.72;61.80;100922.63;5092942;28;20027;-77
2022/10/26 02:56:35;;;;;;;34.45;12.10;;;;;;;18.68;61.76;100919.41;5093080;28;20028;-76
2022/10/26 02:59:04;;;;;;;32.92;10.38;;;;;;;18.63;62.23;100920.91;5088601;28;20052;-77
2022/10/26 03:01:32;;;;;;;44.75;11.18;;;;;;;18.61;62.33;100928.44;5092676;28;20024;-76
2022/10/26 03:03:58;;;;;;;40.85;10.93;;;;;;;18.59;62.34;100927.75;5092750;28;20511;-78
2022/10/26 03:06:24;;;;;;;33.92;12.50;;;;;;;18.65;62.50;100925.22;5093112;28;20025;-76
2022/10/26 03:08:50;;;;;;;23.00;11.55;;;;;;;18.61;62.73;100945.63;5092634;28;20096;-75
2022/10/26 03:11:16;;;;;;;42.75;11.15;;;;;;;18.64;62.60;100944.44;5092552;28;20020;-76
2022/10/26 03:13:42;;;;;;;30.20;11.45;;;;;;;18.63;62.67;100945.44;5092662;28;20028;-77
2022/10/26 03:16:07;;;;;;;35.25;11.95;;;;;;;18.63;62.52;100937.28;5092812;28;20028;-77
2022/10/26 03:18:33;;;;;;;42.78;11.15;;;;;;;18.64;62.66;100952.59;5092453;28;20028;-78
2022/10/26 03:20:58;;;;;;;30.20;10.27;;;;;;;18.62;62.56;100951.94;5092659;28;20414;-77
2022/10/26 03:23:24;;;;;;;19.92;10.05;;;;;;;18.60;62.56;100948.50;5095592;28;20078;-78
2022/10/26 03:25:49;;;;;;;26.73;9.75;;;;;;;18.68;62.58;100964.88;5105668;28;20080;-77
2022/10/26 03:28:14;;;;;;;29.38;12.10;;;;;;;18.66;62.54;100965.03;5108735;28;20020;-78
2022/10/26 03:30:40;;;;;;;48.75;13.18;;;;;;;18.65;62.45;100979.69;5100428;28;20105;-77
2022/10/26 03:33:05;;;;;;;30.58;11.40;;;;;;;18.64;62.21;100971.69;5092570;28;20047;-78
2022/10/26 03:35:31;;;;;;;31.02;11.32;;;;;;;18.51;62.21;100954.97;5092620;28;20552;-77
2022/10/26 03:37:56;;;;;;;27.00;12.10;;;;;;;18.41;62.46;100947.78;5092669;28;20050;-78
2022/10/26 03:40:21;;;;;;;26.02;11.85;;;;;;;18.48;62.46;100967.88;5092232;28;20494;-77
2022/10/26 03:42:47;;;;;;;30.42;12.15;;;;;;;18.47;62.59;100982.50;5091200;28;20479;-78
2022/10/26 03:45:12;;;;;;;41.30;11.18;;;;;;;18.45;62.74;100986.44;5092102;28;20028;-78
2022/10/26 03:47:45;;;;;;;25.05;10.90;;;;;;;18.43;62.95;100989.34;5092186;28;20020;-78
2022/10/26 03:50:12;;;;;;;38.42;11.73;;;;;;;18.28;62.96;100974.66;5091713;28;20024;-78
2022/10/26 03:52:38;;;;;;;40.03;11.30;;;;;;;18.38;63.13;100988.97;5091723;28;20128;-77
2022/10/26 03:55:05;;;;;;;47.95;13.85;;;;;;;18.37;63.04;100995.44;5092037;28;20167;-77
2022/10/26 03:57:30;;;;;;;37.20;11.63;;;;;;;18.30;63.17;101002.56;5091705;28;20044;-77
2022/10/26 03:59:56;;;;;;;115.68;17.05;;;;;;;18.15;63.40;100977.00;5091978;28;20143;-76
2022/10/26 04:02:21;;;;;;;22.65;10.73;;;;;;;18.29;63.40;101009.00;5091608;28;20510;-76
2022/10/26 04:04:46;;;;;;;42.75;11.30;;;;;;;18.23;63.49;101009.69;5091291;28;20051;-76
2022/10/26 04:07:12;;;;;;;44.72;13.15;;;;;;;18.20;63.65;100996.38;5091261;28;20035;-78
2022/10/26 04:09:37;;;;;;;127.85;16.77;;;;;;;18.14;63.92;101007.09;5091074;28;20117;-77
2022/10/26 04:12:03;;;;;;;72.03;14.20;;;;;;;18.12;64.02;101003.69;5091034;28;20412;-76
2022/10/26 04:14:28;;;;;;;55.92;13.45;;;;;;;17.91;64.05;100982.34;5068163;28;20040;-77
2022/10/26 04:16:54;;;;;;;30.27;11.10;;;;;;;18.05;64.18;101008.94;5068557;28;20037;-80
2022/10/26 04:19:19;;;;;;;39.58;11.15;;;;;;;18.06;64.15;101005.19;5066117;28;20438;-77
2022/10/26 04:21:44;;;;;;;28.98;11.23;;;;;;;17.81;64.58;100978.88;5065819;28;20048;-76
2022/10/26 04:24:10;;;;;;;29.77;10.93;;;;;;;17.95;64.85;101019.06;5066561;28;20110;-78
2022/10/26 04:26:36;;;;;;;85.30;12.80;;;;;;;17.93;64.86;101012.97;5066927;28;20029;-77
2022/10/26 04:29:05;;;;;;;113.65;15.45;;;;;;;17.84;65.28;101016.66;5066900;28;20413;-76
2022/10/26 04:31:31;;;;;;;27.42;10.60;;;;;;;17.88;65.59;101018.03;5066578;28;20087;-78
2022/10/26 04:33:57;;;;;;;33.30;10.55;;;;;;;17.79;65.73;101022.59;5066857;28;20076;-75
2022/10/26 04:36:22;;;;;;;41.28;11.48;;;;;;;17.68;65.65;101000.22;5067967;28;20028;-76
2022/10/26 04:38:48;;;;;;;50.00;12.48;;;;;;;17.82;65.70;101033.16;5074474;28;20526;-75
2022/10/26 04:41:14;;;;;;;56.22;12.27;;;;;;;17.78;65.61;101028.19;5075246;28;20037;-76
2022/10/26 04:43:39;;;;;;;39.33;13.52;;;;;;;17.90;65.61;101043.22;5069032;28;20553;-75
2022/10/26 04:46:05;;;;;;;31.83;12.57;;;;;;;17.86;65.54;101039.97;5083481;28;20040;-76
2022/10/26 04:48:30;;;;;;;46.60;12.52;;;;;;;17.91;65.69;101050.38;5089014;28;20122;-76
2022/10/26 04:50:59;;;;;;;70.88;14.07;;;;;;;17.88;65.60;101056.16;5088748;28;20032;-75
2022/10/26 04:53:25;;;;;;;45.22;10.38;;;;;;;17.86;65.57;101058.16;5089434;28;20410;-77
2022/10/26 04:56:00;;;;;;;131.77;16.95;;;;;;;17.90;65.79;101056.81;5091531;28;20031;-78
2022/10/26 04:58:29;;;;;;;40.00;12.18;;;;;;;17.88;65.63;101047.97;5090472;28;20035;-79
2022/10/26 05:00:54;;;;;;;92.47;14.30;;;;;;;17.73;65.75;101042.28;5090587;28;20023;-78
2022/10/26 05:03:20;;;;;;;129.30;18.48;;;;;;;17.74;65.81;101043.13;5092631;28;20039;-81
2022/10/26 05:05:49;;;;;;;56.88;14.43;;;;;;;17.58;65.86;101029.44;5092253;28;20028;-81
2022/10/26 05:08:15;;;;;;;46.20;11.77;;;;;;;17.86;65.79;101071.75;5092318;28;20078;-77
2022/10/26 05:10:41;;;;;;;46.50;13.20;;;;;;;17.89;65.63;101074.16;5090874;28;20506;-78
2022/10/26 05:13:08;;;;;;;27.25;8.93;;;;;;;17.76;65.39;101057.44;5091838;28;20028;-81
2022/10/26 05:15:33;;;;;;;27.83;9.98;;;;;;;17.93;65.45;101076.41;5090382;28;20525;-80
2022/10/26 05:18:04;;;;;;;242.93;17.75;;;;;;;17.99;64.90;101091.25;5092050;28;20103;-81
2022/10/26 05:20:32;;;;;;;29.95;8.07;;;;;;;18.02;64.54;101096.34;5091657;28;20402;-81
2022/10/26 05:23:01;;;;;;;30.67;9.45;;;;;;;17.85;64.32;101062.78;5092035;28;20481;-81
2022/10/26 05:25:29;;;;;;;41.55;8.45;;;;;;;18.06;64.17;101105.91;5092814;28;20020;-80
2022/10/26 05:27:59;;;;;;;23.10;6.70;;;;;;;17.97;64.20;101089.69;5091812;28;20085;-81
2022/10/26 05:30:25;;;;;;;71.05;26.38;;;;;;;17.90;64.16;101075.88;5091883;28;20024;-81
2022/10/26 05:32:54;;;;;;;57.05;12.73;;;;;;;18.12;64.11;101096.25;5092125;28;20116;-80
2022/10/26 05:35:20;;;;;;;43.90;10.32;;;;;;;18.13;64.22;101093.38;5092490;28;20047;-80
2022/10/26 05:37:45;;;;;;;45.42;12.15;;;;;;;18.26;64.10;101110.09;5092191;28;20070;-80
2022/10/26 05:40:11;;;;;;;48.75;11.23;;;;;;;18.16;64.27;101101.22;5091693;28;20020;-83
2022/10/26 05:42:36;;;;;;;38.00;11.43;;;;;;;18.29;64.16;101117.94;5093186;28;20032;-86
2022/10/26 05:45:02;;;;;;;29.40;11.18;;;;;;;18.20;64.04;101094.41;5093923;28;20584;-78
2022/10/26 05:47:27;;;;;;;24.77;11.95;;;;;;;18.42;63.75;101131.13;5092038;28;20032;-78
2022/10/26 05:49:53;;;;;;;32.38;10.88;;;;;;;18.42;63.79;101131.97;5107077;28;20028;-82
2022/10/26 05:52:18;;;;;;;38.75;11.75;;;;;;;18.31;63.63;101113.22;5110653;28;20024;-80
2022/10/26 05:54:44;;;;;;;54.08;11.25;;;;;;;18.22;63.50;101103.28;5107885;28;20032;-79
2022/10/26 05:57:13;;;;;;;149.85;16.98;;;;;;;18.43;63.66;101138.28;5091468;28;20464;-78
2022/10/26 05:59:38;;;;;;;35.30;9.90;;;;;;;18.38;63.50;101127.84;5072002;28;20155;-80
2022/10/26 06:02:32;;;;;;;24.73;9.52;;;;;;;18.52;63.43;101158.28;5094746;28;20060;-82
2022/10/26 06:05:02;;;;;;;288.60;28.00;;;;;;;18.57;63.20;101145.00;5096711;28;20032;-81
2022/10/26 06:07:28;;;;;;;61.22;11.70;;;;;;;18.57;63.10;101153.16;5093431;28;20028;-80
2022/10/26 06:09:54;;;;;;;35.20;10.85;;;;;;;18.51;63.23;101151.97;5093311;28;20035;-82
2022/10/26 06:12:20;;;;;;;51.20;10.90;;;;;;;18.46;63.31;101138.81;5093316;28;20095;-82
2022/10/26 06:14:45;;;;;;;34.70;12.32;;;;;;;18.41;63.38;101143.88;5091474;28;20122;-84
2022/10/26 06:17:27;;;;;;;58.80;11.82;;;;;;;18.31;63.57;101129.53;5095263;28;20055;-85
2022/10/26 06:19:58;;;;;;;31.02;11.05;;;;;;;18.44;63.46;101154.44;5095573;28;20027;-83
2022/10/26 06:22:42;;;;;;;29.80;10.63;;;;;;;18.42;63.52;101147.47;5094738;28;20043;-84
2022/10/26 06:25:44;;;;;;;40.33;9.85;;;;;;;18.52;63.25;101147.38;5093262;28;20053;-83
2022/10/26 06:28:32;;;;;;;105.87;45.33;;;;;;;18.60;62.81;101152.84;5093418;28;20063;-85
2022/10/26 06:30:57;;;;;;;37.35;13.30;;;;;;;18.51;62.58;101123.84;5093667;28;20286;-80
2022/10/26 06:33:24;;;;;;;51.53;12.93;;;;;;;18.73;62.55;101154.09;5092351;28;20543;-83
2022/10/26 06:36:00;;;;;;;34.60;10.63;;;;;;;18.84;62.25;101163.84;5092786;28;20028;-82
2022/10/26 06:38:27;;;;;;;44.65;12.02;;;;;;;18.90;62.12;101158.59;5092217;28;20089;-80
2022/10/26 06:40:55;;;;;;;43.95;11.40;;;;;;;18.93;62.04;101157.41;5091770;28;20028;-79
2022/10/26 06:43:26;;;;;;;38.22;12.57;;;;;;;18.97;61.59;101150.59;5092022;28;20041;-79
2022/10/26 06:46:48;;;;;;;54.97;13.18;;;;;;;19.07;61.54;101164.94;5091649;28;20101;-80
2022/10/26 06:49:39;;;;;;;405.40;31.63;;;;;;;19.12;61.43;101170.75;5028901;28;20079;-80
2022/10/26 06:52:40;;;;;;;277.73;27.80;;;;;;;19.16;61.22;101174.84;5028573;28;20267;-81
2022/10/26 06:55:13;;;;;;;44.40;11.23;;;;;;;19.10;61.30;101185.56;5029303;28;20045;-79
2022/10/26 06:57:41;;;;;;;27.88;9.43;;;;;;;18.99;61.56;101190.31;5012856;28;20044;-79
2022/10/26 07:00:19;;;;;;;103.72;13.85;;;;;;;18.81;61.87;101175.06;5034361;28;20084;-78
2022/10/26 07:02:44;;;;;;;97.70;16.25;;;;;;;18.88;61.94;101174.25;5054884;28;20037;-77
2022/10/26 07:05:11;;;;;;;203.27;17.63;;;;;;;18.94;62.02;101189.94;5054544;28;20132;-79
2022/10/26 07:07:41;;;;;;;343.92;29.75;;;;;;;18.91;62.04;101186.69;5037309;28;20515;-77
2022/10/26 07:10:07;;;;;;;61.55;13.00;;;;;;;18.84;62.04;101175.59;5027756;28;20090;-79
2022/10/26 07:12:33;;;;;;;67.93;14.40;;;;;;;18.95;62.22;101188.09;5026750;28;20041;-78
2022/10/26 07:14:59;;;;;;;65.47;14.68;;;;;;;18.95;62.12;101186.22;5027427;28;20464;-78
2022/10/26 07:17:27;;;;;;;93.60;20.23;;;;;;;18.98;62.16;101187.75;5027653;28;20126;-79
2022/10/26 07:19:53;;;;;;;257.10;32.95;;;;;;;19.04;61.86;101198.00;5064413;28;20039;-77
2022/10/26 07:22:18;;;;;;;44.50;14.80;;;;;;;19.03;61.54;101202.59;5091456;28;20096;-79
2022/10/26 07:24:44;;;;;;;41.35;13.77;;;;;;;19.07;61.52;101205.84;5091723;28;20384;-79
2022/10/26 07:27:09;;;;;;;54.83;16.30;;;;;;;19.02;61.39;101213.66;5091426;28;20051;-79
2022/10/26 07:29:34;;;;;;;52.97;15.65;;;;;;;18.98;61.66;101209.56;5091025;28;20035;-77
2022/10/26 07:32:00;;;;;;;44.83;14.90;;;;;;;18.93;61.90;101206.47;5091327;28;20049;-77
2022/10/26 07:34:25;;;;;;;58.58;15.60;;;;;;;19.00;61.63;101211.09;5091319;28;20412;-78
2022/10/26 07:36:51;;;;;;;46.13;14.63;;;;;;;19.01;61.56;101207.38;5091223;28;20489;-78
2022/10/26 07:39:17;;;;;;;107.68;19.50;;;;;;;19.05;61.64;101213.31;5091263;28;20028;-78
2022/10/26 07:41:44;;;;;;;56.58;15.27;;;;;;;19.02;61.55;101195.41;5091276;28;20035;-78
2022/10/26 07:44:09;;;;;;;65.25;15.68;;;;;;;19.13;61.27;101207.91;5090955;28;20031;-77
2022/10/26 07:46:35;;;;;;;57.63;16.00;;;;;;;19.09;61.28;101187.44;5090941;28;20475;-78
2022/10/26 07:49:00;;;;;;;42.50;14.45;;;;;;;19.25;61.18;101201.13;5090938;28;20024;-78
2022/10/26 07:51:26;;;;;;;35.80;13.88;;;;;;;19.34;60.87;101200.13;5090498;28;20039;-77
2022/10/26 07:53:51;;;;;;;44.15;17.30;;;;;;;19.40;60.38;101194.03;5090733;28;20035;-79
2022/10/26 07:56:17;;;;;;;50.78;17.80;;;;;;;19.31;60.20;101177.78;5090411;28;20402;-78
2022/10/26 07:58:42;;;;;;;66.13;16.42;;;;;;;19.55;60.19;101191.47;5090481;28;20028;-77
2022/10/26 08:01:11;;;;;;;55.95;17.15;;;;;;;19.61;60.13;101201.72;5089259;28;20460;-79
2022/10/26 08:03:36;;;;;;;64.60;17.85;;;;;;;19.76;59.81;101204.63;5087275;28;20059;-79
2022/10/26 08:06:03;;;;;;;43.25;14.15;;;;;;;19.71;59.40;101177.84;5090949;28;20836;-80
2022/10/26 08:08:30;;;;;;;47.50;15.70;;;;;;;20.00;59.09;101210.06;5092529;28;20085;-83
2022/10/26 08:10:56;;;;;;;39.42;14.45;;;;;;;20.02;58.63;101180.75;5093780;28;20043;-79
2022/10/26 08:13:22;;;;;;;33.22;12.57;;;;;;;20.30;58.12;101211.28;5106200;28;20016;-77
2022/10/26 08:15:47;;;;;;;56.55;14.50;;;;;;;20.41;57.80;101200.84;5115495;28;20028;-77
2022/10/26 08:18:13;;;;;;;37.95;15.40;;;;;;;20.58;57.26;101207.97;5114181;28;20039;-78
2022/10/26 08:20:38;;;;;;;27.17;11.02;;;;;;;20.60;57.05;101191.41;5091854;28;20055;-82
2022/10/26 08:23:05;;;;;;;26.50;10.52;;;;;;;20.73;56.28;101185.38;5089699;28;20083;-82
2022/10/26 08:25:31;;;;;;;30.48;12.05;;;;;;;20.94;56.05;101180.16;5090239;28;20023;-81
2022/10/26 08:28:01;;;;;;;40.42;11.65;;;;;;;21.21;55.50;101187.91;5090233;28;20113;-81
2022/10/26 08:30:26;;;;;;;39.72;13.32;;;;;;;21.27;55.20;101170.75;5089904;28;20031;-82
2022/10/26 08:33:03;;;;;;;31.70;11.15;;;;;;;21.73;54.59;101203.63;5089883;28;20088;-81
2022/10/26 08:35:29;;;;;;;37.03;11.23;;;;;;;21.94;53.66;101207.41;5089805;28;20032;-81
2022/10/26 08:37:55;;;;;;;32.28;11.98;;;;;;;22.07;53.17;101201.31;5089827;28;20042;-82
2022/10/26 08:40:32;;;;;;;28.20;11.30;;;;;;;22.17;52.40;101218.31;5103513;28;20426;-83
2022/10/26 08:43:10;;;;;;;30.17;10.32;;;;;;;22.09;52.51;101204.72;5087324;28;20059;-81
2022/10/26 08:45:40;;;;;;;108.82;14.40;;;;;;;22.19;52.21;101206.16;5089290;28;20039;-82
2022/10/26 08:48:13;;;;;;;43.10;9.45;;;;;;;22.22;52.28;101204.94;5088973;28;20486;-79
2022/10/26 08:50:50;;;;;;;26.67;8.77;;;;;;;22.18;51.33;101182.53;5086579;28;20394;-78
2022/10/26 08:53:29;;;;;;;44.72;8.10;;;;;;;22.48;51.03;101215.44;5088906;28;20138;-80
2022/10/26 08:56:11;;;;;;;33.67;7.82;;;;;;;22.47;50.58;101181.72;5089628;28;20477;-78
2022/10/26 08:58:45;;;;;;;32.00;6.90;;;;;;;22.85;49.51;101211.78;5088739;28;20024;-79
2022/10/26 09:01:10;;;;;;;22.50;6.82;;;;;;;23.03;49.00;101210.34;5088947;28;20042;-79
2022/10/26 09:03:36;;;;;;;16.60;7.15;;;;;;;23.15;48.35;101210.69;5088923;28;20032;-81
2022/10/26 09:06:29;;;;;;;19.42;7.10;;;;;;;23.29;48.30;101204.34;5088898;28;20020;-83
2022/10/26 09:09:05;;;;;;;21.20;7.63;;;;;;;23.41;47.50;101200.09;5089828;28;20024;-81
2022/10/26 09:11:37;;;;;;;26.40;7.60;;;;;;;23.52;47.24;101188.56;5089971;28;20403;-79
2022/10/26 09:14:10;;;;;;;20.70;7.47;;;;;;;23.79;46.94;101203.44;5090008;28;20063;-82
2022/10/26 09:16:59;;;;;;;16.83;7.22;;;;;;;23.87;46.48;101213.44;5091102;28;20032;-82
2022/10/26 09:19:49;;;;;;;24.20;7.28;;;;;;;23.92;46.14;101210.94;5046097;28;20041;-79
2022/10/26 09:22:32;;;;;;;26.33;8.05;;;;;;;23.81;46.23;101199.44;5046657;28;20037;-80
2022/10/26 09:25:05;;;;;;;43.90;9.00;;;;;;;23.80;46.12;101202.38;5060849;28;20056;-79
2022/10/26 09:27:38;;;;;;;33.42;8.23;;;;;;;23.77;46.00;101208.25;5068917;28;20043;-77
2022/10/26 09:30:13;;;;;;;90.10;11.07;;;;;;;23.68;46.29;101192.97;5067981;28;20048;-81
2022/10/26 09:32:44;;;;;;;34.72;8.70;;;;;;;23.64;46.33;101200.75;5046346;28;20068;-78
2022/10/26 09:35:41;;;;;;;21.80;8.30;;;;;;;23.63;46.33;101221.03;5045464;28;20039;-80
2022/10/26 09:38:21;;;;;;;35.13;9.55;;;;;;;23.48;46.70;101214.75;4986064;28;20046;-78
2022/10/26 09:41:15;;;;;;;26.67;8.18;;;;;;;23.49;47.09;101221.06;4986164;28;20037;-83
2022/10/26 09:44:04;;;;;;;26.52;7.07;;;;;;;23.39;46.98;101193.06;4928242;29;20054;-80
2022/10/26 09:46:40;;;;;;;14.52;5.68;;;;;;;23.59;46.34;101211.47;4928180;29;20031;-78
2022/10/26 09:49:09;;;;;;;102.60;10.45;;;;;;;23.62;46.09;101204.72;4927853;29;20912;-76
2022/10/26 09:51:37;;;;;;;41.28;6.63;;;;;;;23.77;46.43;101214.63;4927812;29;20503;-78
2022/10/26 09:54:17;;;;;;;70.20;9.13;;;;;;;23.90;46.19;101213.03;4928185;29;20551;-81
2022/10/26 09:56:45;;;;;;;23.25;6.20;;;;;;;24.10;45.47;101201.16;4951647;28;20105;-81
2022/10/26 09:59:11;;;;;;;42.83;6.55;;;;;;;24.21;44.93;101189.69;4966268;28;20484;-79
2022/10/26 10:01:36;;;;;;;464.52;33.42;;;;;;;24.42;44.53;101171.41;4966021;28;20179;-79
2022/10/26 10:04:23;;;;;;;107.22;11.25;;;;;;;24.78;43.62;101185.78;4934421;28;20525;-77
2022/10/26 10:07:12;;;;;;;16.90;6.10;;;;;;;25.11;42.96;101191.47;4966162;28;20034;-79
2022/10/26 10:09:37;;;;;;;26.55;5.25;;;;;;;25.22;42.29;101197.25;4966002;28;20101;-78
2022/10/26 10:12:03;;;;;;;89.97;13.15;;;;;;;25.26;42.03;101201.28;4965713;28;20023;-77
2022/10/26 10:14:32;;;;;;;65.35;9.20;;;;;;;25.10;42.37;101185.13;4981884;28;20049;-76
2022/10/26 10:17:03;;;;;;;101.45;7.85;;;;;;;25.11;41.73;101202.47;5024709;28;20497;-79
2022/10/26 10:19:33;;;;;;;21.60;5.18;;;;;;;24.95;41.57;101197.34;5024906;28;20547;-77
2022/10/26 10:22:22;;;;;;;16.10;4.47;;;;;;;24.79;41.64;101193.84;5087144;28;20063;-77
2022/10/26 10:24:56;;;;;;;21.05;4.00;;;;;;;24.60;42.04;101201.97;5087475;28;20024;-78
2022/10/26 10:27:23;;;;;;;25.65;5.13;;;;;;;24.53;42.56;101201.09;5087481;28;20661;-78
2022/10/26 10:29:56;;;;;;;39.97;5.45;;;;;;;24.41;42.47;101173.31;5087758;28;20125;-77
2022/10/26 10:32:29;;;;;;;285.30;22.48;;;;;;;24.63;42.45;101209.84;5086726;28;20087;-78
2022/10/26 10:34:57;;;;;;;;;;;;;;;24.65;42.47;101203.06;5088336;28;20019;-78
2022/10/26 10:37:41;;;;;;;64.00;8.38;;;;;;;24.70;42.28;101203.34;5107447;28;19911;-79
2022/10/26 10:40:08;;;;;;;274.45;19.70;;;;;;;24.41;45.33;101154.06;5110046;28;20038;-78
2022/10/26 10:42:37;;;;;;;127.43;13.10;;;;;;;24.49;46.13;101203.41;5102988;28;20052;-80
2022/10/26 10:45:05;;;;;;;60.95;7.97;;;;;;;24.15;47.32;101200.63;5087572;28;20028;-79
2022/10/26 10:47:32;;;;;;;43.40;9.05;;;;;;;23.81;48.41;101182.97;5088032;28;20368;-78
2022/10/26 10:50:05;;;;;;;86.75;11.10;;;;;;;23.82;48.98;101195.63;5091169;28;20029;-78
2022/10/26 10:52:33;;;;;;;38.60;7.25;;;;;;;23.48;49.70;101170.81;5091361;28;20070;-78
2022/10/26 10:55:19;;;;;;;41.30;9.27;;;;;;;23.42;50.30;101210.03;5091485;28;20024;-78
2022/10/26 10:58:11;;;;;;;153.20;14.48;;;;;;;23.29;51.34;101209.84;5091197;28;20418;-79
2022/10/26 11:00:37;;;;;;;18.42;6.90;;;;;;;23.20;52.03;101200.00;5091596;28;20024;-80
2022/10/26 11:03:56;;;;;;;162.88;13.32;;;;;;;23.27;51.84;101217.44;5090907;28;20499;-77
2022/10/26 11:06:27;;;;;;;47.78;9.43;;;;;;;23.19;51.98;101209.28;5028306;28;20013;-77
2022/10/26 11:09:06;;;;;;;160.50;15.18;;;;;;;23.03;52.00;101210.34;5028745;28;20037;-82
2022/10/26 11:11:40;;;;;;;38.78;8.45;;;;;;;22.97;52.27;101215.75;5011375;28;20040;-81
2022/10/26 11:14:13;;;;;;;38.25;9.52;;;;;;;22.80;52.80;101203.28;5029642;28;20057;-81
2022/10/26 11:16:44;;;;;;;71.18;10.65;;;;;;;22.47;53.25;101184.47;5028210;28;20042;-81
2022/10/26 11:19:18;;;;;;;38.25;8.27;;;;;;;22.60;53.24;101187.38;5029249;28;20045;-81
2022/10/26 11:21:48;;;;;;;70.05;12.50;;;;;;;22.97;53.22;101207.50;5028714;28;20045;-80
2022/10/26 11:24:21;;;;;;;130.98;12.48;;;;;;;23.28;51.40;101203.50;5028937;28;20029;-81
2022/10/26 11:26:58;;;;;;;131.60;18.38;;;;;;;23.41;49.56;101169.03;5028501;28;20053;-79
2022/10/26 11:29:40;;;;;;;73.32;10.75;;;;;;;23.97;48.93;101201.06;5028938;28;20029;-80